Main page
METAR-TAF:

METAR-TAF

Airports :

Mexicali, Mexico

Mexicali International Airport

latitude: 32-37-50N, longitude: 115-14-30W, elevation: 22 m

Current weather observation

The report was made 44 minutes ago, at 21:44 UTC
Wind 12 kt from the East/Southeast
Temperature 40°C
Humidity 14%
Pressure 1007 hPa
Visibility: 16.1 km
Clear sky

METAR: MMML 192144Z 11012KT 10SM SKC 40/07 A2975 RMK CU N

Time: 17:28 (22:28 UTC)

Forecast

The report was made 5 hours and 14 minutes ago, at 17:14 UTC
Forecast valid from 19 at 18 UTC to 20 at 18 UTC
Wind 12 kt from the Southeast
Visibility: 10 km
Clear sky
From 20 at 0600 UTC
Wind 10 kt from the West/Northwest
Visibility: 10 km
Clear sky

TAF: MMML 191714Z 1918/2018 14012KT P6SM SKC FM200600 30010KT P6SM SKC

Weather observations and forecasts of more than 4000 airports (METAR and TAF reports).

The available stations are represented by yellow and red dots on the map.

Hover mouse over dot to see the name of the station.

Then click to see weather observations and forecasts.

To change the map : click on the green buttons with a black cross to zoom in, on the green button with a dash to zoom out, or on the green arrows for adjacent maps.


METAR-TAF: